Weather at Moi International Airport

Public forecast

Using degrees Celsius for public forecast. Weather courtesy of forecast.io.

Current aviation weather report (METAR) for Moi International Airport

Retrieved 2021/10/16 06:00 UTC (8 minutes ago):

HKMO 160600Z 18004KT 9999 BKN021 27/23 Q1015 NOSIG

Aviation forecast (TAF) for Moi International Airport

Retrieved 2021/10/16 06:21 UTC (0 seconds ago):

TAF TAF HKMO 160500Z 1606/1712 22010KT 9999 SCT021 BKN080 TEMPO 1603/1606 22005KT -SHRA BKN020 BKN080 BECMG 1609/1612 16010KT NSW SCT025 TEMPO 1702/1706 21005KT -SHRA SCT020 BKN080 BECMG 1709/1712 16010KT NSW FEW025